sensor_id;sensor_type;location;lat;lon;timestamp;pressure;altitude;pressure_sealevel;temperature;humidity
21574;BME280;10948;48.706;9.258;2023-03-23T00:00:15;97234.19;;;12.11;100.00
21574;BME280;10948;48.706;9.258;2023-03-23T00:02:40;97227.41;;;12.08;100.00
21574;BME280;10948;48.706;9.258;2023-03-23T00:05:05;97215.72;;;12.25;100.00
21574;BME280;10948;48.706;9.258;2023-03-23T00:07:32;97217.00;;;12.08;100.00
21574;BME280;10948;48.706;9.258;2023-03-23T00:09:57;97211.91;;;12.18;100.00
21574;BME280;10948;48.706;9.258;2023-03-23T00:12:23;97217.03;;;12.30;100.00
21574;BME280;10948;48.706;9.258;2023-03-23T00:15:05;97218.28;;;12.14;100.00
21574;BME280;10948;48.706;9.258;2023-03-23T00:17:31;97213.81;;;12.16;100.00
21574;BME280;10948;48.706;9.258;2023-03-23T00:19:58;97222.16;;;12.43;100.00
21574;BME280;10948;48.706;9.258;2023-03-23T00:22:23;97219.06;;;12.38;100.00
21574;BME280;10948;48.706;9.258;2023-03-23T00:24:50;97218.53;;;12.22;100.00
21574;BME280;10948;48.706;9.258;2023-03-23T00:27:15;97214.47;;;12.07;100.00
21574;BME280;10948;48.706;9.258;2023-03-23T00:29:41;97207.16;;;12.12;100.00
21574;BME280;10948;48.706;9.258;2023-03-23T00:32:07;97209.00;;;11.99;100.00
21574;BME280;10948;48.706;9.258;2023-03-23T00:34:37;97200.09;;;12.36;100.00
21574;BME280;10948;48.706;9.258;2023-03-23T00:37:03;97201.75;;;12.37;100.00
21574;BME280;10948;48.706;9.258;2023-03-23T00:39:28;97206.06;;;12.03;100.00
21574;BME280;10948;48.706;9.258;2023-03-23T00:41:54;97199.53;;;11.98;100.00
21574;BME280;10948;48.706;9.258;2023-03-23T00:44:25;97190.06;;;12.08;100.00
21574;BME280;10948;48.706;9.258;2023-03-23T00:46:50;97190.00;;;12.42;100.00
21574;BME280;10948;48.706;9.258;2023-03-23T00:49:17;97187.72;;;12.16;100.00
21574;BME280;10948;48.706;9.258;2023-03-23T00:51:43;97176.59;;;12.25;100.00
21574;BME280;10948;48.706;9.258;2023-03-23T00:54:09;97183.03;;;12.43;100.00
21574;BME280;10948;48.706;9.258;2023-03-23T00:56:35;97174.09;;;12.45;100.00
21574;BME280;10948;48.706;9.258;2023-03-23T00:59:00;97174.19;;;12.22;100.00
21574;BME280;10948;48.706;9.258;2023-03-23T01:01:25;97163.06;;;12.20;100.00
21574;BME280;10948;48.706;9.258;2023-03-23T01:03:51;97167.94;;;12.13;100.00
21574;BME280;10948;48.706;9.258;2023-03-23T01:06:18;97164.81;;;12.08;100.00
21574;BME280;10948;48.706;9.258;2023-03-23T01:08:43;97177.28;;;12.05;100.00
21574;BME280;10948;48.706;9.258;2023-03-23T01:11:12;97170.81;;;11.87;100.00
21574;BME280;10948;48.706;9.258;2023-03-23T01:13:38;97174.19;;;12.11;100.00
21574;BME280;10948;48.706;9.258;2023-03-23T01:16:03;97175.81;;;11.90;100.00
21574;BME280;10948;48.706;9.258;2023-03-23T01:18:29;97171.88;;;11.84;100.00
21574;BME280;10948;48.706;9.258;2023-03-23T01:20:54;97167.38;;;11.86;100.00
21574;BME280;10948;48.706;9.258;2023-03-23T01:23:19;97165.03;;;12.05;100.00
21574;BME280;10948;48.706;9.258;2023-03-23T01:25:45;97163.91;;;12.20;100.00
21574;BME280;10948;48.706;9.258;2023-03-23T01:28:10;97165.78;;;12.18;99.34
21574;BME280;10948;48.706;9.258;2023-03-23T01:30:36;97154.41;;;12.19;98.95
21574;BME280;10948;48.706;9.258;2023-03-23T01:33:01;97158.56;;;12.33;98.83
21574;BME280;10948;48.706;9.258;2023-03-23T01:35:28;97153.59;;;12.30;100.00
21574;BME280;10948;48.706;9.258;2023-03-23T01:37:53;97148.19;;;11.98;100.00
21574;BME280;10948;48.706;9.258;2023-03-23T01:40:18;97135.06;;;12.22;99.15
21574;BME280;10948;48.706;9.258;2023-03-23T01:42:44;97128.31;;;12.30;95.05
21574;BME280;10948;48.706;9.258;2023-03-23T01:45:26;97120.25;;;12.44;90.70
21574;BME280;10948;48.706;9.258;2023-03-23T01:47:59;97118.94;;;12.28;94.86
21574;BME280;10948;48.706;9.258;2023-03-23T01:50:26;97123.72;;;12.23;99.32
21574;BME280;10948;48.706;9.258;2023-03-23T01:52:52;97125.59;;;12.32;100.00
21574;BME280;10948;48.706;9.258;2023-03-23T01:55:18;97122.25;;;12.08;100.00
21574;BME280;10948;48.706;9.258;2023-03-23T01:57:45;97119.22;;;12.36;100.00
21574;BME280;10948;48.706;9.258;2023-03-23T02:00:10;97118.00;;;12.18;100.00
21574;BME280;10948;48.706;9.258;2023-03-23T02:02:40;97113.13;;;12.24;100.00
21574;BME280;10948;48.706;9.258;2023-03-23T02:05:08;97117.75;;;12.54;97.49
21574;BME280;10948;48.706;9.258;2023-03-23T02:07:35;97123.84;;;12.32;96.62
21574;BME280;10948;48.706;9.258;2023-03-23T02:10:00;97115.41;;;12.18;100.00
21574;BME280;10948;48.706;9.258;2023-03-23T02:12:25;97111.97;;;12.39;100.00
21574;BME280;10948;48.706;9.258;2023-03-23T02:14:51;97113.97;;;12.25;100.00
21574;BME280;10948;48.706;9.258;2023-03-23T02:17:23;97102.94;;;12.10;100.00
21574;BME280;10948;48.706;9.258;2023-03-23T02:22:22;97126.97;;;11.92;100.00
21574;BME280;10948;48.706;9.258;2023-03-23T02:32:15;97118.91;;;11.84;100.00
21574;BME280;10948;48.706;9.258;2023-03-23T02:34:46;97114.38;;;11.75;100.00
21574;BME280;10948;48.706;9.258;2023-03-23T02:37:15;97106.59;;;11.86;100.00
21574;BME280;10948;48.706;9.258;2023-03-23T02:39:45;97116.50;;;11.70;100.00
21574;BME280;10948;48.706;9.258;2023-03-23T02:42:13;97104.41;;;11.69;100.00
21574;BME280;10948;48.706;9.258;2023-03-23T02:44:41;97094.72;;;11.82;100.00
21574;BME280;10948;48.706;9.258;2023-03-23T02:47:09;97081.59;;;12.16;100.00
21574;BME280;10948;48.706;9.258;2023-03-23T02:49:36;97071.75;;;11.87;100.00
21574;BME280;10948;48.706;9.258;2023-03-23T02:52:07;97072.94;;;11.94;100.00
21574;BME280;10948;48.706;9.258;2023-03-23T02:54:33;97071.75;;;11.87;100.00
21574;BME280;10948;48.706;9.258;2023-03-23T02:56:59;97078.16;;;11.94;100.00
21574;BME280;10948;48.706;9.258;2023-03-23T02:59:24;97089.75;;;12.01;100.00
21574;BME280;10948;48.706;9.258;2023-03-23T03:01:51;97077.94;;;11.97;100.00
21574;BME280;10948;48.706;9.258;2023-03-23T03:04:18;97077.69;;;12.11;100.00
21574;BME280;10948;48.706;9.258;2023-03-23T03:09:14;97080.97;;;11.80;100.00
21574;BME280;10948;48.706;9.258;2023-03-23T03:11:46;97067.44;;;11.64;100.00
21574;BME280;10948;48.706;9.258;2023-03-23T03:14:13;97074.59;;;11.84;100.00
21574;BME280;10948;48.706;9.258;2023-03-23T03:16:57;97062.75;;;11.91;100.00
21574;BME280;10948;48.706;9.258;2023-03-23T03:19:26;97066.13;;;11.58;100.00
21574;BME280;10948;48.706;9.258;2023-03-23T03:21:54;97057.97;;;11.63;100.00
21574;BME280;10948;48.706;9.258;2023-03-23T03:24:22;97052.19;;;12.03;100.00
21574;BME280;10948;48.706;9.258;2023-03-23T03:26:50;97054.34;;;12.20;100.00
21574;BME280;10948;48.706;9.258;2023-03-23T03:29:26;97051.97;;;12.28;98.30
21574;BME280;10948;48.706;9.258;2023-03-23T03:31:54;97054.69;;;12.05;96.12
21574;BME280;10948;48.706;9.258;2023-03-23T03:34:20;97043.06;;;12.20;98.17
21574;BME280;10948;48.706;9.258;2023-03-23T03:36:46;97054.22;;;12.00;99.04
21574;BME280;10948;48.706;9.258;2023-03-23T03:39:14;97047.09;;;11.91;100.00
21574;BME280;10948;48.706;9.258;2023-03-23T03:41:41;97044.25;;;11.83;100.00
21574;BME280;10948;48.706;9.258;2023-03-23T03:44:06;97045.91;;;12.06;100.00
21574;BME280;10948;48.706;9.258;2023-03-23T03:46:35;97039.78;;;11.96;100.00
21574;BME280;10948;48.706;9.258;2023-03-23T03:49:01;97044.00;;;11.86;100.00
21574;BME280;10948;48.706;9.258;2023-03-23T03:51:27;97047.06;;;11.69;100.00
21574;BME280;10948;48.706;9.258;2023-03-23T03:53:53;97046.38;;;12.00;100.00
21574;BME280;10948;48.706;9.258;2023-03-23T03:56:19;97047.31;;;11.66;100.00
21574;BME280;10948;48.706;9.258;2023-03-23T03:58:44;97053.19;;;11.57;100.00
21574;BME280;10948;48.706;9.258;2023-03-23T04:01:10;97050.19;;;11.39;100.00
21574;BME280;10948;48.706;9.258;2023-03-23T04:03:35;97046.84;;;11.72;100.00
21574;BME280;10948;48.706;9.258;2023-03-23T04:06:00;97042.94;;;11.66;100.00
21574;BME280;10948;48.706;9.258;2023-03-23T04:08:26;97042.78;;;11.57;100.00
21574;BME280;10948;48.706;9.258;2023-03-23T04:10:51;97048.28;;;11.76;100.00
21574;BME280;10948;48.706;9.258;2023-03-23T04:13:17;97035.50;;;11.84;100.00
21574;BME280;10948;48.706;9.258;2023-03-23T04:15:43;97039.72;;;11.74;100.00
21574;BME280;10948;48.706;9.258;2023-03-23T04:18:08;97041.13;;;11.56;100.00
21574;BME280;10948;48.706;9.258;2023-03-23T04:20:34;97040.16;;;11.57;100.00
21574;BME280;10948;48.706;9.258;2023-03-23T04:23:00;97044.69;;;11.66;100.00
21574;BME280;10948;48.706;9.258;2023-03-23T04:25:25;97039.50;;;11.77;100.00
21574;BME280;10948;48.706;9.258;2023-03-23T04:27:52;97045.44;;;11.79;100.00
21574;BME280;10948;48.706;9.258;2023-03-23T04:30:21;97049.94;;;11.77;100.00
21574;BME280;10948;48.706;9.258;2023-03-23T04:32:49;97048.88;;;11.79;100.00
21574;BME280;10948;48.706;9.258;2023-03-23T04:35:16;97047.56;;;11.85;100.00
21574;BME280;10948;48.706;9.258;2023-03-23T04:37:41;97053.50;;;11.98;100.00
21574;BME280;10948;48.706;9.258;2023-03-23T04:40:08;97051.06;;;11.62;100.00
21574;BME280;10948;48.706;9.258;2023-03-23T04:42:40;97059.06;;;11.82;100.00
21574;BME280;10948;48.706;9.258;2023-03-23T04:45:07;97053.97;;;11.70;100.00
21574;BME280;10948;48.706;9.258;2023-03-23T04:47:34;97057.66;;;11.55;100.00
21574;BME280;10948;48.706;9.258;2023-03-23T04:50:04;97050.88;;;11.65;100.00
21574;BME280;10948;48.706;9.258;2023-03-23T04:52:29;97053.00;;;11.82;100.00
21574;BME280;10948;48.706;9.258;2023-03-23T04:54:55;97051.84;;;11.86;100.00
21574;BME280;10948;48.706;9.258;2023-03-23T04:57:23;97044.00;;;11.75;100.00
21574;BME280;10948;48.706;9.258;2023-03-23T04:59:48;97041.31;;;11.53;100.00
21574;BME280;10948;48.706;9.258;2023-03-23T05:02:14;97032.13;;;11.60;100.00
21574;BME280;10948;48.706;9.258;2023-03-23T05:04:39;97035.03;;;11.90;100.00
21574;BME280;10948;48.706;9.258;2023-03-23T05:07:05;97052.31;;;11.91;100.00
21574;BME280;10948;48.706;9.258;2023-03-23T05:09:31;97049.22;;;11.86;100.00
21574;BME280;10948;48.706;9.258;2023-03-23T05:11:57;97049.44;;;11.72;100.00
21574;BME280;10948;48.706;9.258;2023-03-23T05:14:24;97045.91;;;11.84;100.00
21574;BME280;10948;48.706;9.258;2023-03-23T05:16:50;97049.34;;;11.73;100.00
21574;BME280;10948;48.706;9.258;2023-03-23T05:19:17;97059.44;;;12.00;100.00
21574;BME280;10948;48.706;9.258;2023-03-23T05:21:42;97056.31;;;11.73;100.00
21574;BME280;10948;48.706;9.258;2023-03-23T05:24:09;97050.88;;;11.87;100.00
21574;BME280;10948;48.706;9.258;2023-03-23T05:26:34;97046.38;;;12.00;100.00
21574;BME280;10948;48.706;9.258;2023-03-23T05:28:59;97037.88;;;11.98;100.00
21574;BME280;10948;48.706;9.258;2023-03-23T05:31:24;97040.44;;;12.09;100.00
21574;BME280;10948;48.706;9.258;2023-03-23T05:33:50;97034.97;;;12.34;100.00
21574;BME280;10948;48.706;9.258;2023-03-23T05:36:16;97032.03;;;12.27;100.00
21574;BME280;10948;48.706;9.258;2023-03-23T05:38:41;97047.59;;;12.18;100.00
21574;BME280;10948;48.706;9.258;2023-03-23T05:41:12;97040.94;;;12.03;100.00
21574;BME280;10948;48.706;9.258;2023-03-23T05:43:38;97037.84;;;12.20;100.00
21574;BME280;10948;48.706;9.258;2023-03-23T05:46:03;97036.91;;;12.10;100.00
21574;BME280;10948;48.706;9.258;2023-03-23T05:48:28;97038.69;;;12.20;100.00
21574;BME280;10948;48.706;9.258;2023-03-23T05:50:54;97040.22;;;12.12;100.00
21574;BME280;10948;48.706;9.258;2023-03-23T05:53:19;97047.22;;;12.00;100.00
21574;BME280;10948;48.706;9.258;2023-03-23T05:55:45;97040.13;;;12.13;100.00
21574;BME280;10948;48.706;9.258;2023-03-23T05:58:10;97055.03;;;12.11;100.00
21574;BME280;10948;48.706;9.258;2023-03-23T06:00:35;97057.31;;;12.16;100.00
21574;BME280;10948;48.706;9.258;2023-03-23T06:03:01;97060.16;;;12.24;100.00
21574;BME280;10948;48.706;9.258;2023-03-23T06:05:26;97052.28;;;12.46;100.00
21574;BME280;10948;48.706;9.258;2023-03-23T06:07:52;97064.13;;;12.61;100.00
21574;BME280;10948;48.706;9.258;2023-03-23T06:10:18;97066.72;;;12.61;100.00
21574;BME280;10948;48.706;9.258;2023-03-23T06:12:44;97063.16;;;12.62;100.00
21574;BME280;10948;48.706;9.258;2023-03-23T06:15:09;97072.09;;;12.59;100.00
21574;BME280;10948;48.706;9.258;2023-03-23T06:17:35;97075.97;;;12.76;100.00
21574;BME280;10948;48.706;9.258;2023-03-23T06:20:02;97073.59;;;12.73;100.00
21574;BME280;10948;48.706;9.258;2023-03-23T06:22:29;97083.81;;;12.76;100.00
21574;BME280;10948;48.706;9.258;2023-03-23T06:24:54;97082.59;;;12.80;100.00
21574;BME280;10948;48.706;9.258;2023-03-23T06:27:22;97080.47;;;12.85;100.00
21574;BME280;10948;48.706;9.258;2023-03-23T06:29:47;97091.28;;;12.80;100.00
21574;BME280;10948;48.706;9.258;2023-03-23T06:32:13;97099.22;;;12.90;100.00
21574;BME280;10948;48.706;9.258;2023-03-23T06:34:40;97099.06;;;12.91;100.00
21574;BME280;10948;48.706;9.258;2023-03-23T06:37:08;97092.31;;;13.00;100.00
21574;BME280;10948;48.706;9.258;2023-03-23T06:39:34;97092.56;;;12.97;100.00
21574;BME280;10948;48.706;9.258;2023-03-23T06:41:59;97104.91;;;12.84;100.00
21574;BME280;10948;48.706;9.258;2023-03-23T06:44:25;97097.31;;;12.81;100.00
21574;BME280;10948;48.706;9.258;2023-03-23T06:46:50;97099.22;;;12.79;100.00
21574;BME280;10948;48.706;9.258;2023-03-23T06:49:15;97098.75;;;12.85;100.00
21574;BME280;10948;48.706;9.258;2023-03-23T06:51:41;97103.13;;;12.84;100.00
21574;BME280;10948;48.706;9.258;2023-03-23T06:54:06;97104.78;;;12.85;100.00
21574;BME280;10948;48.706;9.258;2023-03-23T06:56:32;97101.94;;;12.77;100.00
21574;BME280;10948;48.706;9.258;2023-03-23T06:58:57;97104.41;;;13.01;100.00
21574;BME280;10948;48.706;9.258;2023-03-23T07:01:22;97102.09;;;13.18;100.00
21574;BME280;10948;48.706;9.258;2023-03-23T07:03:48;97108.81;;;13.43;100.00
21574;BME280;10948;48.706;9.258;2023-03-23T07:06:14;97108.53;;;13.46;100.00
21574;BME280;10948;48.706;9.258;2023-03-23T07:08:39;97113.47;;;13.60;100.00
21574;BME280;10948;48.706;9.258;2023-03-23T07:11:04;97113.22;;;13.83;97.48
21574;BME280;10948;48.706;9.258;2023-03-23T07:13:30;97105.75;;;13.99;95.33
21574;BME280;10948;48.706;9.258;2023-03-23T07:15:56;97104.66;;;14.02;94.09
21574;BME280;10948;48.706;9.258;2023-03-23T07:18:22;97116.78;;;14.03;92.35
21574;BME280;10948;48.706;9.258;2023-03-23T07:20:48;97116.28;;;14.09;90.55
21574;BME280;10948;48.706;9.258;2023-03-23T07:23:14;97111.75;;;14.11;90.62
21574;BME280;10948;48.706;9.258;2023-03-23T07:25:39;97116.94;;;14.22;88.65
21574;BME280;10948;48.706;9.258;2023-03-23T07:28:05;97135.69;;;14.27;86.29
21574;BME280;10948;48.706;9.258;2023-03-23T07:30:31;97126.22;;;14.15;87.60
21574;BME280;10948;48.706;9.258;2023-03-23T07:32:56;97133.13;;;14.16;88.50
21574;BME280;10948;48.706;9.258;2023-03-23T07:35:22;97138.59;;;14.13;88.93
21574;BME280;10948;48.706;9.258;2023-03-23T07:37:48;97141.44;;;14.21;87.95
21574;BME280;10948;48.706;9.258;2023-03-23T07:40:14;97147.41;;;14.12;86.79
21574;BME280;10948;48.706;9.258;2023-03-23T07:42:40;97145.75;;;14.11;87.40
21574;BME280;10948;48.706;9.258;2023-03-23T07:45:06;97154.16;;;14.25;86.23
21574;BME280;10948;48.706;9.258;2023-03-23T07:47:32;97152.97;;;14.39;83.18
21574;BME280;10948;48.706;9.258;2023-03-23T07:49:57;97151.75;;;14.43;81.82
21574;BME280;10948;48.706;9.258;2023-03-23T07:52:22;97157.78;;;14.64;79.30
21574;BME280;10948;48.706;9.258;2023-03-23T07:54:48;97153.22;;;14.66;79.91
21574;BME280;10948;48.706;9.258;2023-03-23T07:57:14;97152.06;;;14.79;78.57
21574;BME280;10948;48.706;9.258;2023-03-23T07:59:40;97154.44;;;14.92;77.78
21574;BME280;10948;48.706;9.258;2023-03-23T08:02:07;97155.84;;;15.15;76.87
21574;BME280;10948;48.706;9.258;2023-03-23T08:04:34;97165.81;;;15.30;74.56
21574;BME280;10948;48.706;9.258;2023-03-23T08:07:02;97164.09;;;15.50;73.57
21574;BME280;10948;48.706;9.258;2023-03-23T08:09:27;97165.06;;;15.49;73.90
21574;BME280;10948;48.706;9.258;2023-03-23T08:11:52;97154.97;;;15.63;71.81
21574;BME280;10948;48.706;9.258;2023-03-23T08:14:19;97159.56;;;15.90;70.46
21574;BME280;10948;48.706;9.258;2023-03-23T08:16:44;97167.44;;;15.90;69.79
21574;BME280;10948;48.706;9.258;2023-03-23T08:19:10;97171.69;;;15.91;68.94
21574;BME280;10948;48.706;9.258;2023-03-23T08:21:35;97175.84;;;15.93;68.51
21574;BME280;10948;48.706;9.258;2023-03-23T08:24:01;97175.44;;;15.98;68.02
21574;BME280;10948;48.706;9.258;2023-03-23T08:26:27;97172.78;;;16.17;67.26
21574;BME280;10948;48.706;9.258;2023-03-23T08:28:52;97173.88;;;16.24;67.62
21574;BME280;10948;48.706;9.258;2023-03-23T08:31:18;97181.00;;;16.60;67.65
21574;BME280;10948;48.706;9.258;2023-03-23T08:33:43;97177.03;;;16.92;67.34
21574;BME280;10948;48.706;9.258;2023-03-23T08:36:09;97182.72;;;16.88;66.73
21574;BME280;10948;48.706;9.258;2023-03-23T08:38:34;97182.97;;;16.85;66.45
21574;BME280;10948;48.706;9.258;2023-03-23T08:41:03;97192.22;;;16.62;66.76
21574;BME280;10948;48.706;9.258;2023-03-23T08:43:29;97186.25;;;16.60;66.29
21574;BME280;10948;48.706;9.258;2023-03-23T08:45:54;97190.25;;;16.64;66.78
21574;BME280;10948;48.706;9.258;2023-03-23T08:48:20;97184.59;;;16.59;68.36
21574;BME280;10948;48.706;9.258;2023-03-23T08:50:48;97199.22;;;16.71;68.64
21574;BME280;10948;48.706;9.258;2023-03-23T08:53:13;97194.66;;;16.63;69.45
21574;BME280;10948;48.706;9.258;2023-03-23T08:55:38;97196.22;;;16.37;68.89
21574;BME280;10948;48.706;9.258;2023-03-23T08:58:05;97195.16;;;16.21;68.93
21574;BME280;10948;48.706;9.258;2023-03-23T09:00:30;97209.53;;;16.17;70.96
21574;BME280;10948;48.706;9.258;2023-03-23T09:02:56;97210.66;;;16.05;72.08
21574;BME280;10948;48.706;9.258;2023-03-23T09:05:22;97215.34;;;16.11;72.63
21574;BME280;10948;48.706;9.258;2023-03-23T09:07:49;97215.34;;;16.20;72.54
21574;BME280;10948;48.706;9.258;2023-03-23T09:10:16;97213.69;;;16.29;73.09
21574;BME280;10948;48.706;9.258;2023-03-23T09:12:42;97221.53;;;16.48;72.71
21574;BME280;10948;48.706;9.258;2023-03-23T09:15:08;97221.91;;;16.62;71.99
21574;BME280;10948;48.706;9.258;2023-03-23T09:17:38;97219.72;;;16.67;72.02
21574;BME280;10948;48.706;9.258;2023-03-23T09:20:04;97226.38;;;16.62;71.27
21574;BME280;10948;48.706;9.258;2023-03-23T09:22:35;97230.09;;;16.69;71.44
21574;BME280;10948;48.706;9.258;2023-03-23T09:25:00;97235.19;;;16.70;72.03
21574;BME280;10948;48.706;9.258;2023-03-23T09:27:26;97233.03;;;16.92;71.63
21574;BME280;10948;48.706;9.258;2023-03-23T09:29:52;97232.22;;;16.92;70.69
21574;BME280;10948;48.706;9.258;2023-03-23T09:32:18;97238.13;;;17.03;69.77
21574;BME280;10948;48.706;9.258;2023-03-23T09:34:47;97238.38;;;17.00;69.27
21574;BME280;10948;48.706;9.258;2023-03-23T09:37:13;97235.97;;;16.90;70.60
21574;BME280;10948;48.706;9.258;2023-03-23T09:39:39;97239.28;;;16.82;71.02
21574;BME280;10948;48.706;9.258;2023-03-23T09:49:28;97240.59;;;16.69;72.79
21574;BME280;10948;48.706;9.258;2023-03-23T09:51:59;97250.41;;;16.67;72.23
21574;BME280;10948;48.706;9.258;2023-03-23T09:54:30;97251.22;;;16.77;72.60
21574;BME280;10948;48.706;9.258;2023-03-23T09:56:57;97245.41;;;16.83;71.73
21574;BME280;10948;48.706;9.258;2023-03-23T09:59:24;97252.69;;;16.98;71.31
21574;BME280;10948;48.706;9.258;2023-03-23T10:01:53;97249.13;;;17.16;70.12
21574;BME280;10948;48.706;9.258;2023-03-23T10:04:33;97242.22;;;17.15;70.64
21574;BME280;10948;48.706;9.258;2023-03-23T10:09:56;97258.00;;;17.15;68.64
21574;BME280;10948;48.706;9.258;2023-03-23T10:12:27;97250.91;;;17.52;68.70
21574;BME280;10948;48.706;9.258;2023-03-23T10:22:33;97254.28;;;17.89;65.90
21574;BME280;10948;48.706;9.258;2023-03-23T10:30:17;97259.88;;;18.21;64.72
21574;BME280;10948;48.706;9.258;2023-03-23T10:32:51;97268.00;;;18.10;65.94
21574;BME280;10948;48.706;9.258;2023-03-23T10:35:20;97258.84;;;17.70;65.61
21574;BME280;10948;48.706;9.258;2023-03-23T10:37:49;97271.69;;;17.55;67.01
21574;BME280;10948;48.706;9.258;2023-03-23T10:40:16;97259.25;;;17.48;67.46
21574;BME280;10948;48.706;9.258;2023-03-23T10:42:43;97245.53;;;17.71;67.35
21574;BME280;10948;48.706;9.258;2023-03-23T10:47:41;97258.63;;;17.63;67.28
21574;BME280;10948;48.706;9.258;2023-03-23T10:50:16;97266.31;;;17.74;67.32
21574;BME280;10948;48.706;9.258;2023-03-23T10:52:42;97267.66;;;17.78;67.56
21574;BME280;10948;48.706;9.258;2023-03-23T10:57:34;97263.25;;;18.49;65.19
21574;BME280;10948;48.706;9.258;2023-03-23T11:02:31;97275.72;;;19.07;62.94
21574;BME280;10948;48.706;9.258;2023-03-23T11:04:59;97268.63;;;18.82;63.80
21574;BME280;10948;48.706;9.258;2023-03-23T11:07:27;97269.56;;;18.56;62.49
21574;BME280;10948;48.706;9.258;2023-03-23T11:09:54;97270.22;;;18.75;63.62
21574;BME280;10948;48.706;9.258;2023-03-23T11:12:20;97253.59;;;19.00;63.38
21574;BME280;10948;48.706;9.258;2023-03-23T11:14:47;97259.22;;;19.13;61.98
21574;BME280;10948;48.706;9.258;2023-03-23T11:17:20;97262.22;;;19.18;60.93
21574;BME280;10948;48.706;9.258;2023-03-23T11:19:46;97262.03;;;18.86;62.56
21574;BME280;10948;48.706;9.258;2023-03-23T11:22:17;97263.03;;;18.85;62.82
21574;BME280;10948;48.706;9.258;2023-03-23T11:24:45;97255.44;;;18.82;63.75
21574;BME280;10948;48.706;9.258;2023-03-23T11:27:10;97256.06;;;18.76;63.96
21574;BME280;10948;48.706;9.258;2023-03-23T11:29:41;97261.22;;;18.86;63.03
21574;BME280;10948;48.706;9.258;2023-03-23T11:32:09;97258.34;;;18.54;63.80
21574;BME280;10948;48.706;9.258;2023-03-23T11:34:40;97242.56;;;18.01;65.32
21574;BME280;10948;48.706;9.258;2023-03-23T11:37:10;97253.66;;;18.65;66.01
21574;BME280;10948;48.706;9.258;2023-03-23T11:39:48;97248.19;;;18.59;65.67
21574;BME280;10948;48.706;9.258;2023-03-23T11:42:18;97243.31;;;18.97;64.37
21574;BME280;10948;48.706;9.258;2023-03-23T11:44:44;97238.72;;;18.99;65.63
21574;BME280;10948;48.706;9.258;2023-03-23T11:47:20;97238.41;;;19.02;65.68
21574;BME280;10948;48.706;9.258;2023-03-23T11:49:51;97238.63;;;19.42;63.48
21574;BME280;10948;48.706;9.258;2023-03-23T11:52:32;97237.00;;;19.41;62.79
21574;BME280;10948;48.706;9.258;2023-03-23T11:55:09;97233.41;;;19.58;61.00
21574;BME280;10948;48.706;9.258;2023-03-23T11:57:35;97230.47;;;19.61;60.36
21574;BME280;10948;48.706;9.258;2023-03-23T12:00:00;97240.69;;;19.72;59.13
21574;BME280;10948;48.706;9.258;2023-03-23T12:04:56;97224.66;;;20.15;59.13
21574;BME280;10948;48.706;9.258;2023-03-23T12:12:40;97231.34;;;20.02;59.15
21574;BME280;10948;48.706;9.258;2023-03-23T12:15:18;97221.41;;;19.80;59.33
21574;BME280;10948;48.706;9.258;2023-03-23T12:17:53;97222.91;;;19.82;58.27
21574;BME280;10948;48.706;9.258;2023-03-23T12:23:05;97228.50;;;19.71;59.35
21574;BME280;10948;48.706;9.258;2023-03-23T12:25:38;97213.56;;;19.46;58.36
21574;BME280;10948;48.706;9.258;2023-03-23T12:31:02;97215.56;;;19.11;58.74
21574;BME280;10948;48.706;9.258;2023-03-23T12:38:51;97219.31;;;19.08;58.36
21574;BME280;10948;48.706;9.258;2023-03-23T12:43:57;97215.09;;;18.90;59.57
21574;BME280;10948;48.706;9.258;2023-03-23T12:51:43;97214.59;;;19.53;58.48
21574;BME280;10948;48.706;9.258;2023-03-23T12:54:12;97210.00;;;19.71;57.90
21574;BME280;10948;48.706;9.258;2023-03-23T13:04:58;97201.22;;;19.63;56.81
21574;BME280;10948;48.706;9.258;2023-03-23T13:07:28;97190.91;;;19.93;55.96
21574;BME280;10948;48.706;9.258;2023-03-23T13:09:58;97186.44;;;19.94;55.76
21574;BME280;10948;48.706;9.258;2023-03-23T13:12:27;97188.94;;;20.03;55.60
21574;BME280;10948;48.706;9.258;2023-03-23T13:22:44;97182.63;;;19.80;56.55
21574;BME280;10948;48.706;9.258;2023-03-23T13:26:17;97173.53;;;19.75;56.08
21574;BME280;10948;48.706;9.258;2023-03-23T13:28:54;97182.59;;;19.72;56.50
21574;BME280;10948;48.706;9.258;2023-03-23T13:31:19;97166.09;;;19.54;57.03
21574;BME280;10948;48.706;9.258;2023-03-23T13:33:50;97163.31;;;19.80;56.72
21574;BME280;10948;48.706;9.258;2023-03-23T13:36:25;97163.16;;;19.89;56.32
21574;BME280;10948;48.706;9.258;2023-03-23T13:38:51;97168.25;;;19.67;56.93
21574;BME280;10948;48.706;9.258;2023-03-23T13:41:17;97160.47;;;19.65;57.18
21574;BME280;10948;48.706;9.258;2023-03-23T13:43:45;97156.16;;;19.40;57.63
21574;BME280;10948;48.706;9.258;2023-03-23T13:48:45;97155.16;;;19.33;58.38
21574;BME280;10948;48.706;9.258;2023-03-23T13:51:32;97140.91;;;19.26;57.78
21574;BME280;10948;48.706;9.258;2023-03-23T13:54:05;97153.69;;;19.55;57.04
21574;BME280;10948;48.706;9.258;2023-03-23T13:59:07;97135.53;;;19.44;56.96
21574;BME280;10948;48.706;9.258;2023-03-23T14:01:37;97139.31;;;19.33;56.84
21574;BME280;10948;48.706;9.258;2023-03-23T14:04:05;97137.22;;;19.11;57.01
21574;BME280;10948;48.706;9.258;2023-03-23T14:06:34;97146.78;;;19.12;56.81
21574;BME280;10948;48.706;9.258;2023-03-23T14:09:04;97128.00;;;19.07;56.99
21574;BME280;10948;48.706;9.258;2023-03-23T14:11:30;97127.66;;;19.10;56.36
21574;BME280;10948;48.706;9.258;2023-03-23T14:14:04;97130.91;;;18.96;56.38
21574;BME280;10948;48.706;9.258;2023-03-23T14:16:37;97127.28;;;18.97;56.44
21574;BME280;10948;48.706;9.258;2023-03-23T14:19:03;97124.09;;;18.86;56.57
21574;BME280;10948;48.706;9.258;2023-03-23T14:21:34;97117.31;;;18.75;57.66
21574;BME280;10948;48.706;9.258;2023-03-23T14:24:00;97120.03;;;18.58;58.06
21574;BME280;10948;48.706;9.258;2023-03-23T14:26:26;97119.09;;;18.41;56.86